Time;durP1;ratioP1;P1;durP2;ratioP2;P2;SDS_P1;SDS_P2;PMS_P1;PMS_P2;Temp;Humidity;BMP_temperature;BMP_pressure;BME280_temperature;BME280_humidity;BME280_pressure;Samples;Min_cycle;Max_cycle;Signal;HPM_P1;HPM_P2
2021/09/23 00:02:47;;;;;;;6.97;5.18;;;12.00;79.20;;;;;;6276327;28;20532;-78
2021/09/23 00:05:49;;;;;;;6.70;5.30;;;12.00;79.40;;;;;;6277204;28;20413;-79
2021/09/23 00:08:52;;;;;;;7.50;5.82;;;11.90;79.40;;;;;;6276897;28;21256;-79
2021/09/23 00:11:54;;;;;;;6.78;5.75;;;11.80;79.10;;;;;;6277158;28;20432;-78
2021/09/23 00:14:57;;;;;;;6.80;6.20;;;11.80;79.10;;;;;;6277364;28;20489;-78
2021/09/23 00:18:05;;;;;;;7.75;6.18;;;11.70;79.40;;;;;;6265096;28;20557;-79
2021/09/23 00:21:07;;;;;;;6.65;6.05;;;11.70;79.50;;;;;;6254287;28;20442;-79
2021/09/23 00:24:09;;;;;;;8.10;5.93;;;11.60;80.90;;;;;;6255384;28;20462;-79
2021/09/23 00:27:11;;;;;;;10.87;6.00;;;11.60;81.10;;;;;;6254278;28;20446;-79
2021/09/23 00:30:15;;;;;;;6.57;5.77;;;11.60;80.90;;;;;;6253783;28;20411;-79
2021/09/23 00:33:17;;;;;;;5.63;4.88;;;11.60;81.00;;;;;;6253708;28;20463;-78
2021/09/23 00:36:19;;;;;;;6.70;5.82;;;11.60;80.20;;;;;;6253685;28;20435;-79
2021/09/23 00:39:23;;;;;;;8.82;6.50;;;11.60;80.20;;;;;;6254080;28;20415;-79
2021/09/23 00:42:25;;;;;;;8.15;6.20;;;11.60;79.90;;;;;;6254095;28;20438;-79
2021/09/23 00:45:28;;;;;;;6.57;5.78;;;11.50;79.70;;;;;;6253862;28;20411;-79
2021/09/23 00:48:30;;;;;;;6.28;5.20;;;11.40;79.80;;;;;;6253649;28;20565;-79
2021/09/23 00:51:32;;;;;;;12.80;6.05;;;11.40;79.60;;;;;;6254153;28;20461;-79
2021/09/23 00:54:34;;;;;;;7.95;5.95;;;11.40;79.30;;;;;;6253867;28;20514;-78
2021/09/23 00:57:36;;;;;;;5.88;5.22;;;11.30;79.50;;;;;;6253682;28;20495;-79
2021/09/23 01:00:39;;;;;;;8.18;5.75;;;11.30;78.80;;;;;;6253938;28;20569;-79
2021/09/23 01:03:41;;;;;;;8.02;6.63;;;11.30;79.50;;;;;;6253858;28;20940;-78
2021/09/23 01:06:44;;;;;;;7.25;6.45;;;11.20;79.40;;;;;;6254219;28;20897;-78
2021/09/23 01:09:47;;;;;;;6.75;5.70;;;11.20;79.10;;;;;;6252582;28;21031;-78
2021/09/23 01:12:50;;;;;;;6.40;5.80;;;11.10;79.00;;;;;;6252830;28;21179;-78
2021/09/23 01:15:53;;;;;;;6.13;5.57;;;11.10;79.30;;;;;;6250573;28;20573;-79
2021/09/23 01:18:55;;;;;;;6.25;5.60;;;11.10;79.50;;;;;;6251017;28;20442;-79
2021/09/23 01:21:58;;;;;;;7.10;6.13;;;11.00;79.40;;;;;;6251567;28;20996;-78
2021/09/23 01:25:01;;;;;;;5.72;5.13;;;11.00;79.50;;;;;;6249654;28;20498;-78
2021/09/23 01:28:05;;;;;;;7.13;5.30;;;10.90;79.00;;;;;;6251282;28;20454;-78
2021/09/23 01:31:07;;;;;;;6.25;5.20;;;10.90;79.00;;;;;;6249967;28;20498;-77
2021/09/23 01:34:09;;;;;;;7.20;5.57;;;10.80;79.60;;;;;;6249333;28;20557;-78
2021/09/23 01:37:12;;;;;;;6.82;5.88;;;10.80;79.70;;;;;;6249328;28;20923;-78
2021/09/23 01:40:14;;;;;;;8.30;6.32;;;10.80;79.50;;;;;;6248568;28;20502;-78
2021/09/23 01:43:16;;;;;;;6.35;5.82;;;10.70;79.70;;;;;;6249120;28;20446;-79
2021/09/23 01:46:18;;;;;;;7.87;5.83;;;10.70;79.50;;;;;;6248865;28;20423;-78
2021/09/23 01:49:20;;;;;;;6.32;5.70;;;10.70;79.30;;;;;;6249106;28;20422;-78
2021/09/23 01:52:23;;;;;;;5.95;5.18;;;10.60;79.20;;;;;;6249406;28;20560;-78
2021/09/23 01:55:25;;;;;;;7.72;5.75;;;10.60;79.50;;;;;;6247994;28;20454;-78
2021/09/23 01:58:27;;;;;;;6.43;5.57;;;10.50;79.70;;;;;;6247248;28;20458;-78
2021/09/23 02:01:29;;;;;;;6.83;6.13;;;10.50;79.60;;;;;;6247964;28;20502;-78
2021/09/23 02:04:30;;;;;;;5.82;5.22;;;10.50;79.60;;;;;;6250463;28;20438;-78
2021/09/23 02:07:34;;;;;;;6.70;5.60;;;10.40;79.50;;;;;;6249205;28;20502;-78
2021/09/23 02:10:35;;;;;;;11.07;5.63;;;10.40;79.40;;;;;;6251630;28;20492;-78
2021/09/23 02:13:37;;;;;;;5.27;4.77;;;10.40;79.60;;;;;;6255712;28;20484;-78
2021/09/23 02:16:39;;;;;;;6.97;6.38;;;10.30;79.80;;;;;;6257491;28;20434;-77
2021/09/23 02:19:41;;;;;;;6.75;5.20;;;10.30;79.60;;;;;;6254015;28;20513;-78
2021/09/23 02:22:45;;;;;;;7.90;5.25;;;10.20;79.30;;;;;;6252354;28;20468;-78
2021/09/23 02:25:47;;;;;;;7.30;5.40;;;10.20;79.40;;;;;;6251526;28;20422;-78
2021/09/23 02:28:49;;;;;;;8.20;5.77;;;10.20;79.30;;;;;;6251829;28;20542;-78
2021/09/23 02:31:51;;;;;;;7.82;5.93;;;10.20;79.70;;;;;;6251862;28;20434;-78
2021/09/23 02:34:53;;;;;;;6.80;4.85;;;10.20;79.80;;;;;;6252868;28;20884;-78
2021/09/23 02:37:56;;;;;;;6.83;5.27;;;10.20;79.90;;;;;;6251586;28;20481;-78
2021/09/23 02:40:58;;;;;;;8.15;4.88;;;10.20;79.30;;;;;;6250700;28;20403;-78
2021/09/23 02:44:00;;;;;;;6.05;5.35;;;10.10;79.30;;;;;;6252089;28;20451;-78
2021/09/23 02:47:01;;;;;;;7.38;5.68;;;10.10;79.30;;;;;;6250860;28;20446;-78
2021/09/23 02:50:04;;;;;;;5.90;5.38;;;10.20;79.40;;;;;;6251892;28;21007;-79
2021/09/23 02:53:07;;;;;;;5.78;5.28;;;10.10;79.40;;;;;;6251228;28;20494;-78
2021/09/23 02:56:09;;;;;;;8.93;6.03;;;10.10;79.40;;;;;;6252910;28;20454;-78
2021/09/23 02:59:11;;;;;;;7.07;4.93;;;10.00;80.00;;;;;;6252909;28;20423;-78
2021/09/23 03:02:13;;;;;;;6.00;4.90;;;10.10;79.10;;;;;;6251649;28;20439;-78
2021/09/23 03:05:15;;;;;;;6.10;5.18;;;10.10;79.50;;;;;;6251555;28;20412;-78
2021/09/23 03:08:18;;;;;;;6.10;5.25;;;10.10;79.40;;;;;;6251333;28;20445;-78
2021/09/23 03:11:20;;;;;;;6.43;5.82;;;10.00;78.90;;;;;;6250526;28;20415;-78
2021/09/23 03:14:21;;;;;;;6.30;5.70;;;10.00;79.00;;;;;;6251084;28;20450;-78
2021/09/23 03:17:24;;;;;;;5.60;5.13;;;9.90;79.70;;;;;;6253057;28;20438;-78
2021/09/23 03:20:26;;;;;;;6.50;5.22;;;9.90;79.90;;;;;;6251409;28;20435;-78
2021/09/23 03:23:29;;;;;;;11.83;5.53;;;9.90;79.20;;;;;;6251753;28;20558;-78
2021/09/23 03:26:31;;;;;;;6.27;5.67;;;9.80;80.20;;;;;;6251806;28;20498;-78
2021/09/23 03:29:33;;;;;;;7.97;5.50;;;9.90;79.70;;;;;;6252338;28;20415;-78
2021/09/23 03:32:34;;;;;;;5.68;5.18;;;9.80;79.50;;;;;;6250812;28;20931;-78
2021/09/23 03:35:37;;;;;;;6.80;5.73;;;9.80;79.20;;;;;;6250483;28;20594;-78
2021/09/23 03:38:41;;;;;;;6.03;5.38;;;9.70;79.60;;;;;;6251578;28;20466;-78
2021/09/23 03:41:43;;;;;;;6.63;6.00;;;9.80;79.00;;;;;;6252903;28;20415;-78
2021/09/23 03:44:45;;;;;;;6.70;6.00;;;9.70;79.10;;;;;;6248923;28;20481;-78
2021/09/23 03:47:46;;;;;;;6.45;5.60;;;9.70;79.30;;;;;;6249488;28;20461;-78
2021/09/23 03:50:49;;;;;;;6.45;5.85;;;9.70;79.30;;;;;;6249149;28;20423;-78
2021/09/23 03:53:52;;;;;;;7.10;6.18;;;9.60;79.40;;;;;;6249137;28;20422;-77
2021/09/23 03:56:54;;;;;;;8.77;6.40;;;9.60;79.40;;;;;;6249839;28;20514;-78
2021/09/23 03:59:56;;;;;;;7.47;6.03;;;9.60;79.80;;;;;;6249093;28;20535;-78
2021/09/23 04:02:58;;;;;;;6.90;6.18;;;9.50;79.20;;;;;;6248846;28;20435;-78
2021/09/23 04:06:00;;;;;;;6.53;5.78;;;9.50;79.20;;;;;;6248280;28;20784;-78
2021/09/23 04:09:03;;;;;;;7.70;7.00;;;9.40;78.50;;;;;;6248583;28;21034;-78
2021/09/23 04:12:05;;;;;;;8.50;7.60;;;9.40;78.80;;;;;;6249171;28;20529;-78
2021/09/23 04:15:09;;;;;;;7.50;6.70;;;9.30;78.80;;;;;;6248927;28;20564;-78
2021/09/23 04:18:15;;;;;;;9.15;7.57;;;9.40;80.70;;;;;;6249473;28;20419;-79
2021/09/23 04:21:17;;;;;;;9.05;6.80;;;9.40;80.80;;;;;;6248185;28;20446;-78
2021/09/23 04:24:21;;;;;;;6.35;5.65;;;9.40;80.70;;;;;;6248823;28;20480;-78
2021/09/23 04:27:22;;;;;;;6.68;5.95;;;9.40;80.40;;;;;;6249165;28;20498;-78
2021/09/23 04:30:24;;;;;;;6.93;6.00;;;9.30;80.30;;;;;;6248729;28;20482;-78
2021/09/23 04:33:26;;;;;;;6.80;6.07;;;9.30;80.00;;;;;;6247830;28;20999;-78
2021/09/23 04:36:28;;;;;;;7.47;6.37;;;9.40;80.50;;;;;;6249451;28;20546;-78
2021/09/23 04:39:31;;;;;;;7.28;6.57;;;9.30;79.10;;;;;;6248040;28;20980;-78
2021/09/23 04:42:33;;;;;;;6.85;6.10;;;9.20;79.00;;;;;;6248144;28;20462;-78
2021/09/23 04:45:35;;;;;;;7.38;6.20;;;9.20;79.30;;;;;;6248840;28;20450;-78
2021/09/23 04:48:37;;;;;;;7.53;5.93;;;9.20;80.00;;;;;;6247894;28;20994;-78
2021/09/23 04:51:40;;;;;;;6.40;5.70;;;9.20;79.80;;;;;;6248508;28;20569;-78
2021/09/23 04:54:43;;;;;;;7.32;6.63;;;9.20;79.00;;;;;;6246991;28;20415;-78
2021/09/23 04:57:45;;;;;;;6.80;6.07;;;9.20;78.60;;;;;;6246739;28;20472;-79
2021/09/23 05:00:46;;;;;;;9.07;7.63;;;9.10;78.90;;;;;;6245932;28;20505;-78
2021/09/23 05:03:48;;;;;;;8.30;6.82;;;9.10;79.20;;;;;;6246973;28;20903;-78
2021/09/23 05:06:52;;;;;;;8.73;7.23;;;9.00;79.50;;;;;;6246885;28;20419;-78
2021/09/23 05:09:55;;;;;;;8.48;7.60;;;8.90;79.90;;;;;;6247737;28;20411;-79
2021/09/23 05:12:57;;;;;;;8.05;7.10;;;9.00;79.70;;;;;;6246735;28;21075;-78
2021/09/23 05:15:59;;;;;;;8.90;6.97;;;8.90;80.60;;;;;;6248026;28;21128;-78
2021/09/23 05:19:01;;;;;;;7.63;6.25;;;9.00;81.30;;;;;;6246478;28;20478;-78
2021/09/23 05:22:03;;;;;;;10.38;7.30;;;9.10;79.50;;;;;;6246484;28;20554;-78
2021/09/23 05:25:08;;;;;;;7.95;7.15;;;9.10;80.20;;;;;;6246463;28;20415;-78
2021/09/23 05:28:10;;;;;;;6.93;6.18;;;9.10;80.70;;;;;;6247219;28;20524;-78
2021/09/23 05:31:11;;;;;;;10.48;7.43;;;9.10;80.00;;;;;;6246236;28;20476;-78
2021/09/23 05:34:13;;;;;;;12.00;8.20;;;9.10;82.10;;;;;;6246802;28;20468;-78
2021/09/23 05:37:15;;;;;;;35.55;9.07;;;9.20;82.50;;;;;;6246898;28;20451;-78
2021/09/23 05:40:18;;;;;;;10.40;8.18;;;9.30;83.20;;;;;;6246722;28;20438;-78
2021/09/23 05:43:20;;;;;;;13.88;9.40;;;9.30;82.60;;;;;;6245912;28;20549;-78
2021/09/23 05:46:22;;;;;;;18.80;9.40;;;9.30;83.10;;;;;;6250911;28;20423;-78
2021/09/23 05:49:24;;;;;;;44.60;9.45;;;9.40;83.80;;;;;;6254612;28;20415;-78
2021/09/23 05:52:26;;;;;;;9.65;8.73;;;9.50;83.40;;;;;;6255936;28;20441;-77
2021/09/23 05:55:30;;;;;;;17.10;8.95;;;9.60;83.50;;;;;;6315831;22;20438;-76
2021/09/23 05:58:32;;;;;;;23.83;9.98;;;9.70;83.00;;;;;;6298519;28;20879;-76
2021/09/23 06:01:34;;;;;;;23.15;9.77;;;9.90;82.50;;;;;;6298377;28;20979;-76
2021/09/23 06:04:36;;;;;;;18.85;10.95;;;10.00;82.00;;;;;;6299015;28;20596;-76
2021/09/23 06:07:37;;;;;;;16.02;11.25;;;10.10;82.10;;;;;;6298586;28;20552;-76
2021/09/23 06:10:41;;;;;;;16.85;10.65;;;10.30;82.10;;;;;;6297983;28;20415;-76
2021/09/23 06:13:43;;;;;;;14.63;9.27;;;10.50;82.00;;;;;;6297810;28;20577;-76
2021/09/23 06:16:45;;;;;;;15.33;10.03;;;10.70;81.40;;;;;;6298207;28;20431;-76
2021/09/23 06:19:47;;;;;;;20.25;10.85;;;10.90;81.00;;;;;;6298130;28;20518;-76
2021/09/23 06:22:50;;;;;;;34.38;11.90;;;11.10;81.20;;;;;;6298262;28;20416;-76
2021/09/23 06:25:53;;;;;;;19.97;10.80;;;11.20;81.40;;;;;;6297971;28;20411;-76
2021/09/23 06:28:56;;;;;;;29.47;10.93;;;11.50;81.40;;;;;;6297783;28;20488;-76
2021/09/23 06:31:58;;;;;;;16.95;10.57;;;11.70;80.70;;;;;;6298442;28;20439;-76
2021/09/23 06:35:01;;;;;;;25.13;11.75;;;11.90;81.20;;;;;;6297433;28;20399;-76
2021/09/23 06:38:03;;;;;;;17.73;10.60;;;12.20;80.20;;;;;;6245111;28;20442;-76
2021/09/23 06:41:06;;;;;;;17.30;10.52;;;12.40;80.90;;;;;;6223684;28;20495;-76
2021/09/23 06:44:08;;;;;;;14.52;10.18;;;12.70;79.10;;;;;;6224276;28;20447;-76
2021/09/23 06:47:10;;;;;;;18.42;13.57;;;12.80;78.80;;;;;;6223411;28;20471;-76
2021/09/23 06:50:12;;;;;;;21.15;16.60;;;12.90;78.00;;;;;;6223612;28;20503;-77
2021/09/23 06:53:14;;;;;;;17.40;13.88;;;13.00;78.30;;;;;;6223133;28;20475;-76
2021/09/23 06:56:18;;;;;;;17.27;12.45;;;13.10;77.80;;;;;;6223063;28;20575;-77
2021/09/23 06:59:20;;;;;;;16.50;11.63;;;13.20;77.70;;;;;;6223331;28;20439;-77
2021/09/23 07:02:22;;;;;;;15.57;13.97;;;13.30;77.80;;;;;;6223194;28;20421;-76
2021/09/23 07:05:23;;;;;;;18.08;16.00;;;13.40;77.10;;;;;;6223045;28;20463;-76
2021/09/23 07:08:25;;;;;;;14.17;12.77;;;13.50;77.30;;;;;;6223728;28;20441;-77
2021/09/23 07:11:28;;;;;;;12.50;11.30;;;13.70;77.30;;;;;;6222778;28;20444;-77
2021/09/23 07:14:30;;;;;;;11.18;10.05;;;13.90;76.80;;;;;;6223008;28;20488;-76
2021/09/23 07:17:34;;;;;;;13.73;12.13;;;14.10;75.90;;;;;;6223031;28;20475;-77
2021/09/23 07:20:35;;;;;;;10.60;9.60;;;14.30;75.70;;;;;;6223163;28;20487;-77
2021/09/23 07:23:37;;;;;;;11.90;10.38;;;14.50;75.10;;;;;;6223131;28;20444;-77
2021/09/23 07:26:41;;;;;;;14.77;11.20;;;14.70;74.30;;;;;;6222589;28;20496;-77
2021/09/23 07:29:42;;;;;;;12.77;11.57;;;14.90;74.00;;;;;;6222320;28;20810;-77
2021/09/23 07:32:44;;;;;;;14.68;11.30;;;15.10;73.40;;;;;;6222419;28;20490;-77
2021/09/23 07:35:47;;;;;;;18.50;16.58;;;15.40;73.20;;;;;;6223112;28;20472;-77
2021/09/23 07:38:48;;;;;;;14.50;13.00;;;15.70;72.50;;;;;;6222250;28;20413;-78
2021/09/23 07:41:52;;;;;;;15.13;13.52;;;16.00;71.60;;;;;;6222437;28;20874;-77
2021/09/23 07:44:54;;;;;;;17.48;13.45;;;16.40;70.90;;;;;;6222095;28;20962;-78
2021/09/23 07:47:56;;;;;;;13.95;11.80;;;17.00;68.90;;;;;;6222974;28;20440;-77
2021/09/23 07:50:58;;;;;;;15.43;12.23;;;17.50;66.40;;;;;;6222092;28;20428;-77
2021/09/23 07:54:00;;;;;;;12.50;10.70;;;17.50;65.60;;;;;;6222228;28;20545;-74
2021/09/23 07:57:04;;;;;;;12.10;11.00;;;17.40;67.30;;;;;;6222044;28;20417;-74
2021/09/23 08:00:07;;;;;;;13.80;11.13;;;17.60;66.50;;;;;;6222015;28;20477;-75
2021/09/23 08:03:09;;;;;;;12.02;10.48;;;17.90;65.50;;;;;;6221754;28;20567;-75
2021/09/23 08:06:11;;;;;;;12.10;10.90;;;18.20;64.10;;;;;;6221958;28;20445;-74
2021/09/23 08:09:13;;;;;;;10.30;9.30;;;18.40;63.40;;;;;;6221497;28;20413;-74
2021/09/23 08:12:16;;;;;;;11.60;10.07;;;18.60;62.50;;;;;;6222036;28;20472;-74
2021/09/23 08:15:19;;;;;;;11.82;9.30;;;19.00;62.00;;;;;;6221659;28;20801;-75
2021/09/23 08:18:22;;;;;;;11.18;9.75;;;19.30;60.40;;;;;;6221481;28;20575;-75
2021/09/23 08:21:24;;;;;;;10.20;9.25;;;19.40;59.80;;;;;;6221394;28;20420;-75
2021/09/23 08:24:26;;;;;;;12.00;8.32;;;19.40;60.60;;;;;;6221459;28;20520;-75
2021/09/23 08:27:29;;;;;;;11.20;8.27;;;19.40;59.80;;;;;;6221204;28;20500;-74
2021/09/23 08:30:31;;;;;;;11.63;8.60;;;19.60;59.30;;;;;;6221160;28;20503;-75
2021/09/23 08:33:33;;;;;;;12.88;7.90;;;19.80;58.80;;;;;;6220481;28;20500;-75
2021/09/23 08:36:35;;;;;;;8.98;7.68;;;20.10;58.00;;;;;;6224773;28;20624;-75
2021/09/23 08:39:37;;;;;;;28.02;19.17;;;20.40;57.30;;;;;;6244954;28;20411;-75
2021/09/23 08:42:41;;;;;;;8.82;7.70;;;20.60;56.70;;;;;;6245287;28;20422;-75
2021/09/23 08:45:43;;;;;;;10.32;9.43;;;20.80;55.40;;;;;;6245360;28;20549;-74
2021/09/23 08:48:45;;;;;;;7.47;6.78;;;20.90;55.50;;;;;;6239589;28;20911;-75
2021/09/23 08:51:47;;;;;;;10.10;7.78;;;21.00;54.30;;;;;;6221840;28;20518;-74
2021/09/23 08:54:49;;;;;;;7.50;6.80;;;21.10;54.80;;;;;;6225761;28;20433;-75
2021/09/23 08:57:52;;;;;;;8.95;7.45;;;21.10;54.10;;;;;;6220799;28;20504;-75
2021/09/23 09:01:03;;;;;;;7.85;6.95;;;21.10;53.70;;;;;;6220392;28;20519;-74
2021/09/23 09:04:05;;;;;;;9.75;7.00;;;21.00;54.10;;;;;;6220748;28;20437;-75
2021/09/23 09:07:09;;;;;;;9.85;7.13;;;21.00;54.40;;;;;;6220604;28;20420;-75
2021/09/23 09:10:12;;;;;;;8.02;6.13;;;21.00;53.60;;;;;;6221141;28;20424;-73
2021/09/23 09:13:16;;;;;;;7.32;6.57;;;20.90;54.70;;;;;;6220298;28;20482;-75
2021/09/23 09:16:19;;;;;;;9.02;5.82;;;21.10;54.10;;;;;;6220175;28;20519;-74
2021/09/23 09:19:21;;;;;;;8.63;7.33;;;21.30;53.80;;;;;;6215064;28;20620;-75
2021/09/23 09:22:25;;;;;;;8.50;6.45;;;21.40;53.80;;;;;;6233789;28;20552;-75
2021/09/23 09:25:27;;;;;;;6.95;6.28;;;21.60;53.20;;;;;;6242156;28;20414;-75
2021/09/23 09:28:30;;;;;;;5.63;4.88;;;21.70;52.50;;;;;;6244443;28;20485;-75
2021/09/23 09:31:32;;;;;;;6.20;5.33;;;21.80;52.50;;;;;;6243571;28;20450;-74
2021/09/23 09:34:34;;;;;;;9.63;6.57;;;22.10;51.70;;;;;;6251838;28;20485;-76
2021/09/23 09:37:38;;;;;;;10.38;8.10;;;22.20;51.30;;;;;;6255539;28;20481;-75
2021/09/23 09:40:42;;;;;;;5.97;5.28;;;22.30;50.70;;;;;;6243748;28;20474;-74
2021/09/23 09:43:45;;;;;;;5.80;5.18;;;22.30;50.30;;;;;;6243441;28;20431;-75
2021/09/23 09:46:49;;;;;;;6.97;5.43;;;22.40;50.30;;;;;;6243223;28;20780;-74
2021/09/23 09:49:51;;;;;;;7.03;4.33;;;22.60;49.90;;;;;;6234598;28;20494;-74
2021/09/23 09:52:57;;;;;;;8.13;4.25;;;22.70;49.50;;;;;;6217371;28;20480;-74
2021/09/23 09:55:58;;;;;;;6.63;4.53;;;22.90;49.00;;;;;;6220212;28;21091;-74
2021/09/23 09:59:13;;;;;;;5.90;4.60;;;22.90;48.80;;;;;;6219661;28;20467;-74
2021/09/23 10:02:15;;;;;;;9.95;4.47;;;23.20;48.30;;;;;;6219780;28;20427;-74
2021/09/23 10:05:19;;;;;;;7.15;3.83;;;23.30;47.10;;;;;;6220239;28;20420;-74
2021/09/23 10:08:21;;;;;;;5.80;3.83;;;23.50;46.90;;;;;;6220202;28;20495;-74
2021/09/23 10:11:23;;;;;;;4.50;4.10;;;23.70;46.40;;;;;;6219430;28;20413;-75
2021/09/23 10:14:27;;;;;;;6.07;4.03;;;23.90;46.10;;;;;;6220287;28;20463;-75
2021/09/23 10:17:30;;;;;;;5.22;3.92;;;24.20;45.30;;;;;;6219679;28;20417;-75
2021/09/23 10:20:32;;;;;;;5.60;3.72;;;24.40;45.20;;;;;;6219581;28;20454;-75
2021/09/23 10:23:39;;;;;;;4.47;4.03;;;24.70;44.80;;;;;;6243595;28;20557;-75
2021/09/23 10:26:44;;;;;;;4.00;3.65;;;24.90;45.00;;;;;;6227000;28;20790;-75
2021/09/23 10:29:48;;;;;;;5.15;3.85;;;25.00;43.40;;;;;;6218572;28;20420;-75
2021/09/23 10:32:50;;;;;;;6.90;4.05;;;25.00;44.10;;;;;;6222400;28;20977;-75
2021/09/23 10:35:52;;;;;;;5.90;4.33;;;25.10;42.80;;;;;;6224362;28;21672;-75
2021/09/23 10:38:55;;;;;;;5.25;4.40;;;25.10;43.00;;;;;;6223798;28;20444;-75
2021/09/23 10:41:57;;;;;;;4.97;4.00;;;25.10;43.00;;;;;;6223563;28;20496;-75
2021/09/23 10:45:04;;;;;;;6.13;4.47;;;25.10;43.10;;;;;;6223635;28;20488;-75
2021/09/23 10:48:06;;;;;;;5.65;4.35;;;25.10;44.40;;;;;;6223930;28;20495;-75
2021/09/23 10:51:10;;;;;;;8.43;6.00;;;25.10;43.50;;;;;;6223162;28;20416;-75
2021/09/23 10:54:17;;;;;;;7.75;5.90;;;25.30;43.50;;;;;;6198938;28;20422;-75
2021/09/23 10:57:19;;;;;;;6.28;5.68;;;25.30;43.30;;;;;;6199187;28;20917;-76
2021/09/23 11:00:26;;;;;;;7.28;5.65;;;25.20;44.80;;;;;;6199021;28;21018;-75
2021/09/23 11:03:34;;;;;;;7.80;6.07;;;25.40;43.80;;;;;;6198839;28;20796;-75
2021/09/23 11:06:37;;;;;;;7.13;5.68;;;25.60;44.30;;;;;;6199072;28;20438;-75
2021/09/23 11:09:39;;;;;;;9.18;6.65;;;25.80;43.00;;;;;;6198046;28;20497;-76
2021/09/23 11:12:43;;;;;;;7.05;4.63;;;26.00;43.70;;;;;;6199043;28;20453;-76
2021/09/23 11:15:48;;;;;;;7.53;5.03;;;26.20;43.00;;;;;;6199161;28;20512;-75
2021/09/23 11:18:50;;;;;;;7.00;5.95;;;26.10;43.10;;;;;;6199119;28;20565;-76
2021/09/23 11:21:54;;;;;;;5.13;4.63;;;26.20;42.90;;;;;;6222221;28;20501;-76
2021/09/23 11:24:58;;;;;;;6.47;4.57;;;26.30;43.00;;;;;;6222319;28;20519;-76
2021/09/23 11:28:00;;;;;;;5.07;4.60;;;26.30;43.70;;;;;;6222732;28;20972;-76
2021/09/23 11:31:03;;;;;;;6.78;5.30;;;26.50;42.50;;;;;;6222296;28;20552;-76
2021/09/23 11:34:05;;;;;;;4.85;4.13;;;26.90;41.60;;;;;;6222131;28;20478;-76
2021/09/23 11:37:09;;;;;;;7.53;4.10;;;27.20;41.50;;;;;;6222331;28;20781;-76
2021/09/23 11:40:13;;;;;;;4.65;3.70;;;27.30;39.30;;;;;;6217822;28;20440;-75
2021/09/23 11:43:16;;;;;;;4.33;3.50;;;27.00;39.80;;;;;;6221348;28;20421;-75
2021/09/23 11:46:20;;;;;;;4.90;2.80;;;27.10;38.30;;;;;;6221600;28;20914;-75
2021/09/23 11:49:22;;;;;;;11.50;3.40;;;26.90;38.50;;;;;;6221063;28;20428;-76
2021/09/23 11:52:31;;;;;;;3.30;2.70;;;27.10;39.10;;;;;;6221533;28;20454;-76
2021/09/23 11:55:35;;;;;;;3.97;2.70;;;27.30;38.30;;;;;;6242921;23;20440;-76
2021/09/23 11:58:39;;;;;;;3.60;2.80;;;27.50;37.60;;;;;;6220289;28;20425;-76
2021/09/23 12:01:42;;;;;;;3.90;3.00;;;27.60;36.70;;;;;;6220837;28;20428;-76
2021/09/23 12:04:53;;;;;;;5.03;3.50;;;27.60;37.70;;;;;;6210340;28;20434;-77
2021/09/23 12:07:56;;;;;;;5.25;2.85;;;27.70;37.80;;;;;;6197428;28;20489;-76
2021/09/23 12:10:59;;;;;;;3.20;2.80;;;28.00;37.80;;;;;;6196608;28;20897;-77
2021/09/23 12:14:08;;;;;;;5.80;3.22;;;28.10;36.60;;;;;;6196729;28;20538;-77
2021/09/23 12:17:11;;;;;;;4.90;3.03;;;28.10;37.10;;;;;;6195668;28;20891;-77
2021/09/23 12:20:13;;;;;;;6.20;3.38;;;28.00;38.00;;;;;;6196211;28;20434;-77
2021/09/23 12:23:30;;;;;;;5.50;3.10;;;28.20;36.60;;;;;;6196589;28;20903;-78
2021/09/23 12:26:37;;;;;;;4.35;3.15;;;28.30;35.80;;;;;;6196348;28;20498;-76
2021/09/23 12:29:40;;;;;;;5.28;2.90;;;28.20;35.40;;;;;;6197879;28;21065;-77
2021/09/23 12:32:43;;;;;;;4.30;3.07;;;28.20;36.40;;;;;;6197165;28;20449;-76
2021/09/23 12:35:45;;;;;;;4.95;3.22;;;28.30;35.10;;;;;;6193056;28;20438;-76
2021/09/23 12:38:47;;;;;;;3.17;2.70;;;28.30;35.00;;;;;;6206262;28;20503;-78
2021/09/23 12:42:04;;;;;;;3.58;3.03;;;28.40;36.00;;;;;;6220017;28;20830;-77
2021/09/23 12:45:08;;;;;;;3.63;3.25;;;28.40;35.40;;;;;;6223126;28;20416;-77
2021/09/23 12:48:16;;;;;;;5.85;3.58;;;28.10;36.70;;;;;;6221443;28;20524;-77
2021/09/23 12:51:37;;;;;;;4.18;3.45;;;27.70;37.90;;;;;;6213631;28;20895;-77
2021/09/23 12:54:51;;;;;;;8.27;4.32;;;27.70;37.40;;;;;;6219635;28;20451;-77
2021/09/23 12:57:54;;;;;;;4.05;3.65;;;27.40;38.50;;;;;;6221213;28;20913;-77
2021/09/23 13:00:57;;;;;;;6.82;3.90;;;27.40;38.50;;;;;;6221576;28;20507;-77
2021/09/23 13:04:00;;;;;;;6.95;4.13;;;27.30;39.00;;;;;;6219978;28;20918;-77
2021/09/23 13:07:16;;;;;;;5.45;3.95;;;27.40;38.70;;;;;;6219689;28;20457;-77
2021/09/23 13:10:21;;;;;;;6.50;3.70;;;27.80;38.00;;;;;;6219327;28;20417;-76
2021/09/23 13:13:26;;;;;;;6.28;4.15;;;28.10;37.50;;;;;;6219202;28;20495;-77
2021/09/23 13:16:39;;;;;;;4.63;4.05;;;28.40;37.00;;;;;;6218194;28;20520;-76
2021/09/23 13:19:42;;;;;;;5.07;3.73;;;28.70;36.90;;;;;;6243792;28;20422;-76
2021/09/23 13:22:44;;;;;;;6.32;3.38;;;29.00;36.60;;;;;;6243101;28;20474;-77
2021/09/23 13:25:47;;;;;;;4.17;3.20;;;28.90;35.90;;;;;;6243376;28;20500;-77
2021/09/23 13:28:49;;;;;;;3.35;2.45;;;29.00;35.50;;;;;;6242725;28;20430;-77
2021/09/23 13:31:51;;;;;;;4.40;3.03;;;29.00;35.30;;;;;;6244123;28;20551;-76
2021/09/23 13:34:54;;;;;;;3.35;2.92;;;29.10;35.20;;;;;;6242784;28;20470;-77
2021/09/23 13:37:56;;;;;;;3.50;3.20;;;29.20;35.40;;;;;;6243734;28;20419;-76
2021/09/23 13:40:59;;;;;;;4.00;2.90;;;29.20;36.20;;;;;;6242151;28;20415;-77
2021/09/23 13:44:02;;;;;;;5.38;3.60;;;29.00;36.40;;;;;;6242663;28;20529;-77
2021/09/23 13:47:05;;;;;;;7.03;3.03;;;28.90;35.90;;;;;;6245211;28;20494;-77
2021/09/23 13:50:09;;;;;;;6.18;3.20;;;28.80;37.20;;;;;;6243236;28;20414;-77
2021/09/23 13:53:11;;;;;;;5.43;3.20;;;28.90;37.00;;;;;;6235368;28;20416;-77
2021/09/23 13:56:13;;;;;;;5.67;3.67;;;28.90;36.60;;;;;;6245842;28;20800;-77
2021/09/23 13:59:15;;;;;;;4.63;3.63;;;29.10;36.50;;;;;;6244036;28;20423;-77
2021/09/23 14:02:16;;;;;;;3.88;3.47;;;28.80;37.70;;;;;;6244511;28;20565;-77
2021/09/23 14:05:20;;;;;;;5.63;3.05;;;28.50;36.70;;;;;;6246113;28;20446;-76
2021/09/23 14:08:22;;;;;;;5.17;3.60;;;28.40;37.30;;;;;;6249291;28;20916;-78
2021/09/23 14:11:24;;;;;;;4.55;3.50;;;28.20;37.50;;;;;;6249007;28;20419;-77
2021/09/23 14:14:26;;;;;;;4.50;3.22;;;28.00;37.70;;;;;;6250719;28;20407;-78
2021/09/23 14:17:28;;;;;;;3.10;2.90;;;28.00;38.40;;;;;;6250887;28;20514;-78
2021/09/23 14:20:31;;;;;;;4.70;3.10;;;28.10;38.50;;;;;;6250656;28;20553;-76
2021/09/23 14:23:33;;;;;;;3.10;2.70;;;28.10;38.30;;;;;;6251221;28;20438;-79
2021/09/23 14:26:35;;;;;;;4.47;2.65;;;28.10;38.80;;;;;;6248856;28;20415;-77
2021/09/23 14:29:39;;;;;;;3.83;3.13;;;28.30;39.30;;;;;;6249251;28;20422;-76
2021/09/23 14:32:41;;;;;;;3.50;3.20;;;28.40;37.90;;;;;;6250071;28;20434;-77
2021/09/23 14:35:44;;;;;;;4.38;3.30;;;28.60;37.80;;;;;;6249731;28;20512;-77
2021/09/23 14:38:50;;;;;;;6.95;2.90;;;28.70;37.70;;;;;;6249884;28;20415;-77
2021/09/23 14:41:52;;;;;;;5.70;3.47;;;28.80;36.90;;;;;;6246024;28;20441;-77
2021/09/23 14:44:53;;;;;;;8.93;3.60;;;28.80;37.30;;;;;;6248635;28;20862;-77
2021/09/23 14:47:55;;;;;;;5.05;3.25;;;28.50;36.80;;;;;;6249731;28;20525;-77
2021/09/23 14:50:58;;;;;;;3.88;3.03;;;28.40;37.40;;;;;;6249160;28;20422;-77
2021/09/23 14:54:00;;;;;;;4.88;3.58;;;28.40;37.80;;;;;;6249050;28;20557;-77
2021/09/23 14:57:03;;;;;;;5.95;2.88;;;28.30;38.10;;;;;;6249336;28;20840;-77
2021/09/23 15:00:07;;;;;;;4.22;2.67;;;28.20;37.90;;;;;;6249522;28;20742;-77
2021/09/23 15:03:08;;;;;;;4.82;3.40;;;27.90;38.60;;;;;;6248613;28;20426;-77
2021/09/23 15:06:12;;;;;;;3.88;3.15;;;27.70;39.40;;;;;;6248688;28;20439;-78
2021/09/23 15:09:14;;;;;;;5.13;3.55;;;27.40;39.60;;;;;;6248161;28;20878;-77
2021/09/23 15:12:16;;;;;;;5.45;3.65;;;27.20;39.90;;;;;;6249175;28;20434;-77
2021/09/23 15:15:19;;;;;;;6.32;3.53;;;26.90;40.70;;;;;;6249208;28;20422;-77
2021/09/23 15:18:21;;;;;;;3.70;3.28;;;26.50;41.40;;;;;;6248028;28;20426;-77
2021/09/23 15:21:25;;;;;;;7.80;3.42;;;26.10;42.10;;;;;;6248257;28;20458;-77
2021/09/23 15:24:27;;;;;;;6.13;4.13;;;25.80;43.00;;;;;;6248835;28;20466;-77
2021/09/23 15:27:29;;;;;;;6.10;3.88;;;25.50;43.50;;;;;;6248422;28;20502;-77
2021/09/23 15:30:33;;;;;;;5.22;3.53;;;25.10;44.10;;;;;;6247392;28;20827;-77
2021/09/23 15:33:35;;;;;;;6.15;3.40;;;24.80;45.40;;;;;;6247128;28;20469;-77
2021/09/23 15:36:39;;;;;;;3.78;3.47;;;24.60;46.00;;;;;;6246652;28;20505;-76
2021/09/23 15:39:41;;;;;;;4.10;3.60;;;24.50;46.20;;;;;;6246163;28;20431;-76
2021/09/23 15:42:42;;;;;;;4.20;3.70;;;24.30;46.60;;;;;;6245157;28;20858;-76
2021/09/23 15:45:44;;;;;;;5.65;3.70;;;24.20;46.50;;;;;;6244377;28;20488;-77
2021/09/23 15:48:46;;;;;;;7.78;3.50;;;24.10;47.10;;;;;;6245335;28;20911;-77
2021/09/23 15:51:49;;;;;;;9.63;4.20;;;24.00;47.80;;;;;;6245321;28;20435;-78